Time;durP1;ratioP1;P1;durP2;ratioP2;P2;SDS_P1;SDS_P2;PMS_P1;PMS_P2;Temp;Humidity;BMP_temperature;BMP_pressure;BME280_temperature;BME280_humidity;BME280_pressure;Samples;Min_cycle;Max_cycle;Signal;HPM_P1;HPM_P2
2023/10/02 00:00:34;;;;;;;;;19.50;13.75;;;;;20.98;65.21;101687.19;5059745;28;46152;-42
2023/10/02 00:03:00;;;;;;;;;25.50;18.75;;;;;21.00;64.81;101690.56;5059712;28;45422;-42
2023/10/02 00:05:40;;;;;;;;;21.25;16.25;;;;;20.96;65.07;101691.13;5059509;28;50328;-42
2023/10/02 00:08:06;;;;;;;;;15.00;10.75;;;;;20.96;64.87;101683.84;5059867;28;45337;-46
2023/10/02 00:10:31;;;;;;;;;20.00;16.75;;;;;20.94;65.07;101685.91;5059563;28;45349;-47
2023/10/02 00:12:59;;;;;;;;;18.50;16.00;;;;;20.90;65.18;101682.78;5059638;28;45186;-46
2023/10/02 00:15:25;;;;;;;;;19.00;14.25;;;;;20.85;65.38;101693.31;5059896;28;45426;-47
2023/10/02 00:17:50;;;;;;;;;21.00;13.75;;;;;20.77;65.53;101692.59;5060561;28;45344;-44
2023/10/02 00:20:22;;;;;;;;;20.75;15.25;;;;;20.84;65.52;101696.22;5059248;28;55204;-46
2023/10/02 00:22:47;;;;;;;;;16.50;14.75;;;;;20.87;65.13;101695.84;5060286;28;45376;-46
2023/10/02 00:25:19;;;;;;;;;22.50;19.75;;;;;20.87;65.18;101699.38;5058555;28;45400;-44
2023/10/02 00:27:54;;;;;;;;;18.00;16.25;;;;;20.86;65.13;101697.72;5060363;28;45351;-42
2023/10/02 00:30:30;;;;;;;;;19.50;16.00;;;;;20.83;65.31;101692.66;5059335;28;46313;-42
2023/10/02 00:32:55;;;;;;;;;20.75;18.50;;;;;20.80;65.62;101697.63;5059256;28;45272;-42
2023/10/02 00:35:22;;;;;;;;;20.50;15.50;;;;;20.75;65.31;101700.91;5059415;28;45357;-42
2023/10/02 00:37:47;;;;;;;;;23.00;18.50;;;;;20.74;65.39;101695.69;5059503;28;45221;-42
2023/10/02 00:40:14;;;;;;;;;26.00;18.50;;;;;20.66;65.55;101677.72;5058968;28;45406;-42
2023/10/02 00:42:40;;;;;;;;;26.75;18.00;;;;;20.62;65.40;101676.41;5058898;28;45443;-42
2023/10/02 00:45:08;;;;;;;;;26.25;19.75;;;;;20.67;65.37;101695.59;5059288;28;45356;-42
2023/10/02 00:47:41;;;;;;;;;17.50;16.00;;;;;20.65;65.59;101692.25;5041206;28;45478;-42
2023/10/02 00:50:10;;;;;;;;;24.00;18.25;;;;;20.63;65.78;101692.44;5059093;28;47404;-43
2023/10/02 00:52:40;;;;;;;;;14.75;13.50;;;;;20.53;65.38;101677.56;5040905;28;45356;-42
2023/10/02 00:55:07;;;;;;;;;19.75;16.00;;;;;20.55;65.51;101689.84;5059209;28;45268;-43
2023/10/02 00:57:36;;;;;;;;;17.75;15.50;;;;;20.35;65.51;101659.00;5059189;28;45481;-42
2023/10/02 01:00:16;;;;;;;;;19.25;16.25;;;;;20.46;66.05;101685.53;5058915;28;46619;-42
2023/10/02 01:02:42;;;;;;;;;24.50;15.75;;;;;20.38;65.86;101685.66;5058821;28;45323;-42
2023/10/02 01:05:14;;;;;;;;;22.50;17.75;;;;;20.37;66.39;101683.97;5058996;28;45372;-43
2023/10/02 01:07:40;;;;;;;;;24.00;18.50;;;;;20.42;66.36;101690.47;5059098;28;45434;-43
2023/10/02 01:10:07;;;;;;;;;20.50;14.50;;;;;20.41;66.35;101685.28;5040551;28;47498;-42
2023/10/02 01:12:43;;;;;;;;;18.50;18.00;;;;;20.41;66.68;101686.09;5058411;28;45372;-42
2023/10/02 01:15:13;;;;;;;;;19.00;15.50;;;;;20.40;66.42;101694.41;5058700;28;45653;-43
2023/10/02 01:17:45;;;;;;;;;23.25;15.75;;;;;20.23;65.73;101663.22;5058872;28;45355;-42
2023/10/02 01:20:20;;;;;;;;;21.25;17.00;;;;;20.34;66.01;101682.47;5058161;28;46295;-41
2023/10/02 01:22:51;;;;;;;;;43.00;33.33;;;;;20.30;66.08;101683.88;5058378;28;45295;-43
2023/10/02 01:25:18;;;;;;;;;53.33;38.00;;;;;20.24;66.70;101681.09;5058477;28;45386;-45
2023/10/02 01:27:47;;;;;;;;;32.25;24.00;;;;;20.24;66.59;101681.94;5058462;28;45360;-45
2023/10/02 01:30:16;;;;;;;;;31.67;23.00;;;;;20.21;66.84;101682.31;5058292;28;46548;-45
2023/10/02 01:33:06;;;;;;;;;22.00;18.25;;;;;20.19;66.14;101682.50;5058474;28;45434;-41
2023/10/02 01:35:34;;;;;;;;;40.67;32.67;;;;;20.17;67.06;101673.72;5057928;28;45432;-45
2023/10/02 01:38:00;;;;;;;;;22.50;17.25;;;;;20.17;67.06;101671.03;5058183;28;45474;-42
2023/10/02 01:40:33;;;;;;;;;19.50;17.00;;;;;20.15;66.87;101670.41;5058113;28;46000;-43
2023/10/02 01:43:11;;;;;;;;;18.00;15.00;;;;;20.14;67.01;101676.81;5058178;28;45356;-41
2023/10/02 01:45:42;;;;;;;;;18.00;14.25;;;;;20.10;66.39;101672.81;5058217;28;45442;-42
2023/10/02 01:48:36;;;;;;;;;20.50;17.25;;;;;20.08;66.55;101671.31;5057334;28;45546;-43
2023/10/02 01:51:27;;;;;;;;;67.00;48.00;;;;;20.04;66.95;101670.84;5057565;28;46276;-42
2023/10/02 01:53:59;;;;;;;;;22.50;16.75;;;;;20.01;67.31;101667.69;5057944;28;45505;-44
2023/10/02 01:56:29;;;;;;;;;26.25;18.00;;;;;19.95;67.11;101658.47;5039785;28;45273;-42
2023/10/02 01:59:16;;;;;;;;;20.00;16.50;;;;;19.96;67.32;101662.00;5058199;28;45486;-48
2023/10/02 02:01:57;;;;;;;;;18.00;15.75;;;;;19.96;67.35;101659.31;5057746;28;47006;-47
2023/10/02 02:04:32;;;;;;;;;19.00;15.50;;;;;19.93;67.25;101652.41;5057770;28;45320;-45
2023/10/02 02:07:00;;;;;;;;;13.75;13.50;;;;;19.90;67.59;101656.34;5057917;28;45292;-44
2023/10/02 02:09:30;;;;;;;;;26.75;17.75;;;;;19.92;67.54;101658.84;5058146;28;45528;-45
2023/10/02 02:12:15;;;;;;;;;23.00;17.75;;;;;19.86;67.44;101657.72;5057682;28;46209;-47
2023/10/02 02:14:52;;;;;;;;;17.25;13.00;;;;;19.84;67.49;101651.66;5057916;28;45332;-43
2023/10/02 02:17:28;;;;;;;;;18.00;15.00;;;;;19.80;67.63;101649.50;5057932;28;45437;-42
2023/10/02 02:20:10;;;;;;;;;22.25;17.75;;;;;19.77;67.46;101642.66;5058111;28;45367;-41
2023/10/02 02:22:36;;;;;;;;;16.25;12.75;;;;;19.77;68.01;101652.59;5056905;28;45452;-44
2023/10/02 02:25:04;;;;;;;;;17.50;12.75;;;;;19.76;67.67;101651.75;5057671;28;45501;-43
2023/10/02 02:27:29;;;;;;;;;17.00;14.00;;;;;19.70;68.17;101647.09;5057577;28;45500;-44
2023/10/02 02:29:57;;;;;;;;;21.50;13.75;;;;;19.69;67.94;101642.72;5057977;28;45322;-44
2023/10/02 02:32:36;;;;;;;;;22.50;17.25;;;;;19.65;68.33;101639.56;5057351;28;46351;-42
2023/10/02 02:35:09;;;;;;;;;21.75;15.00;;;;;19.62;68.10;101634.50;5057515;28;45441;-46
2023/10/02 02:37:35;;;;;;;;;16.75;12.50;;;;;19.66;68.13;101643.91;5057446;28;45494;-46
2023/10/02 02:40:22;;;;;;;;;23.75;14.75;;;;;19.62;68.07;101648.00;5058062;28;45359;-46
2023/10/02 02:42:51;;;;;;;;;27.75;17.00;;;;;19.49;68.33;101623.50;5057339;28;47054;-43
2023/10/02 02:45:29;;;;;;;;;20.00;15.25;;;;;19.58;68.55;101643.97;5057140;28;45248;-42
2023/10/02 02:47:55;;;;;;;;;22.00;14.50;;;;;19.57;68.35;101644.16;5056316;28;45230;-44
2023/10/02 02:50:28;;;;;;;;;31.67;15.00;;;;;19.50;68.38;101629.72;5057757;28;45433;-42
2023/10/02 02:55:40;;;;;;;;;20.75;15.25;;;;;19.47;68.91;101641.75;5057119;28;45449;-46
2023/10/02 02:58:07;;;;;;;;;13.50;10.00;;;;;19.43;68.59;101638.56;5039117;28;45486;-42
2023/10/02 03:00:35;;;;;;;;;18.00;16.25;;;;;19.41;68.67;101634.34;5057205;28;45320;-45
2023/10/02 03:03:02;;;;;;;;;25.75;15.50;;;;;19.47;68.79;101632.78;5056919;28;45435;-44
2023/10/02 03:05:43;;;;;;;;;16.75;13.50;;;;;19.47;68.60;101632.78;5056943;28;46072;-44
2023/10/02 03:08:11;;;;;;;;;18.75;13.75;;;;;19.46;68.72;101631.94;5057076;28;45304;-44
2023/10/02 03:10:39;;;;;;;;;21.25;16.25;;;;;19.46;68.91;101629.25;5057220;28;45266;-42
2023/10/02 03:13:08;;;;;;;;;19.25;15.00;;;;;19.44;68.96;101634.84;5056631;28;46147;-43
2023/10/02 03:15:45;;;;;;;;;18.00;15.25;;;;;19.44;68.54;101623.22;5056997;28;45335;-43
2023/10/02 03:23:33;;;;;;;;;18.00;14.75;;;;;19.39;68.85;101625.63;5056591;28;45379;-45
2023/10/02 03:25:59;;;;;;;;;14.75;13.00;;;;;19.36;69.01;101625.97;5056784;28;45186;-46
2023/10/02 03:28:27;;;;;;;;;20.00;14.00;;;;;19.35;68.76;101617.06;5056383;28;45301;-43
2023/10/02 03:30:56;;;;;;;;;21.75;16.00;;;;;19.35;68.98;101627.00;5056843;28;45471;-44
2023/10/02 03:33:22;;;;;;;;;21.33;13.33;;;;;19.34;69.22;101633.41;5056575;28;46159;-43
2023/10/02 03:35:58;;;;;;;;;20.25;15.50;;;;;19.34;68.96;101628.88;5056469;28;45294;-46
2023/10/02 03:38:32;;;;;;;;;15.25;13.25;;;;;19.34;68.84;101628.00;5056440;28;45328;-43
2023/10/02 03:40:59;;;;;;;;;21.00;16.75;;;;;19.31;68.67;101623.00;5056626;28;45379;-45
2023/10/02 03:43:35;;;;;;;;;19.50;14.25;;;;;19.28;68.79;101620.66;5055976;28;45933;-44
2023/10/02 03:46:06;;;;;;;;;22.50;16.00;;;;;19.23;68.72;101613.13;5055382;28;45582;-47
2023/10/02 03:48:33;;;;;;;;;24.00;18.50;;;;;19.20;69.34;101605.38;5055437;28;45446;-43
2023/10/02 03:51:06;;;;;;;;;22.00;15.75;;;;;19.19;69.09;101622.59;5056036;28;45541;-47
2023/10/02 03:53:33;;;;;;;;;21.25;16.25;;;;;19.10;69.00;101612.91;5056040;28;46233;-43
2023/10/02 03:58:52;;;;;;;;;21.00;19.33;;;;;19.05;69.83;101613.44;5056876;28;45278;-45
2023/10/02 04:01:30;;;;;;;;;22.00;15.50;;;;;19.03;69.18;101611.94;5060150;28;45233;-45
2023/10/02 04:04:19;;;;;;;;;35.67;29.00;;;;;19.03;69.42;101611.94;5059618;28;45981;-43
2023/10/02 04:06:44;;;;;;;;;19.50;15.75;;;;;18.99;69.48;101608.75;5058915;28;45407;-44
2023/10/02 04:11:43;;;;;;;;;18.50;15.00;;;;;18.99;69.54;101602.53;5059837;28;45474;-43
2023/10/02 04:14:18;;;;;;;;;19.25;16.25;;;;;18.93;69.51;101594.16;5059205;28;46346;-45
2023/10/02 04:17:09;;;;;;;;;19.50;16.50;;;;;18.95;69.31;101608.28;5059539;28;45364;-43
2023/10/02 04:19:35;;;;;;;;;21.50;19.00;;;;;18.91;69.53;101603.44;5059549;28;45284;-46
2023/10/02 04:22:06;;;;;;;;;20.33;14.33;;;;;18.87;69.68;101604.81;5059681;28;45380;-46
2023/10/02 04:24:50;;;;;;;;;22.67;14.33;;;;;18.85;69.63;101602.31;5059013;28;45480;-48
2023/10/02 04:27:18;;;;;;;;;22.33;16.33;;;;;18.83;69.69;101598.09;5058553;28;45310;-42
2023/10/02 04:30:09;;;;;;;;;23.67;17.00;;;;;18.80;69.79;101593.09;5058892;28;45334;-41
2023/10/02 04:32:32;;;;;;;;;24.67;19.00;;;;;18.82;69.97;101607.22;5059429;28;45177;-45
2023/10/02 04:34:58;;;;;;;;;29.50;17.50;;;;;18.77;69.85;101593.44;5059867;28;46225;-42
2023/10/02 04:37:23;;;;;;;;;23.00;15.00;;;;;18.75;70.03;101601.72;5058683;28;45458;-42
2023/10/02 04:42:22;;;;;;;;;23.67;17.00;;;;;18.75;69.92;101607.13;5059568;28;45232;-42
2023/10/02 04:44:58;;;;;;;;;19.67;14.67;;;;;18.74;69.97;101601.88;5058973;28;45386;-42
2023/10/02 04:47:31;;;;;;;;;20.33;16.33;;;;;18.75;69.99;101607.13;5058913;28;45340;-42
2023/10/02 04:55:43;;;;;;;;;22.33;17.00;;;;;18.68;70.00;101596.16;5058979;28;45774;-42
2023/10/02 04:58:19;;;;;;;;;25.67;16.00;;;;;18.67;70.05;101607.13;5058786;28;45446;-46
2023/10/02 05:03:29;;;;;;;;;22.67;17.67;;;;;18.64;70.02;101594.00;5058975;28;45229;-45
2023/10/02 05:05:58;;;;;;;;;19.33;17.33;;;;;18.63;70.26;101601.25;5058746;28;46126;-41
2023/10/02 05:08:40;;;;;;;;;22.00;18.33;;;;;18.59;70.22;101594.53;5058627;28;45418;-47
2023/10/02 05:11:07;;;;;;;;;24.67;15.67;;;;;18.55;70.47;101589.69;5057230;28;45468;-47
2023/10/02 05:16:45;;;;;;;;;24.33;18.33;;;;;18.51;70.34;101591.91;5058296;28;46077;-45
2023/10/02 05:19:14;;;;;;;;;24.00;18.00;;;;;18.52;70.70;101587.34;5058438;28;45293;-42
2023/10/02 05:21:39;;;;;;;;;27.00;19.00;;;;;18.44;70.84;101585.53;5058624;28;45340;-41
2023/10/02 05:24:11;;;;;;;;;23.33;18.33;;;;;18.41;70.72;101581.38;5058544;28;45366;-46
2023/10/02 05:26:39;;;;;;;;;31.67;19.00;;;;;18.44;70.85;101596.31;5058411;28;46274;-44
2023/10/02 05:29:07;;;;;;;;;27.00;20.00;;;;;18.38;70.72;101580.88;5058162;28;45458;-43
2023/10/02 05:31:41;;;;;;;;;20.33;16.00;;;;;18.44;70.48;101593.63;5058621;28;45875;-42
2023/10/02 05:34:08;;;;;;;;;22.67;18.67;;;;;18.42;70.94;101585.72;5058574;28;45268;-44
2023/10/02 05:36:35;;;;;;;;;21.67;14.67;;;;;18.38;70.86;101597.03;5058049;28;45266;-44
2023/10/02 05:39:28;;;;;;;;;16.00;15.00;;;;;18.31;70.98;101593.38;5058282;28;45346;-41
2023/10/02 05:41:56;;;;;;;;;21.00;17.33;;;;;18.30;71.08;101602.47;5058251;28;45463;-43
2023/10/02 05:44:25;;;;;;;;;22.67;15.00;;;;;18.22;71.29;101591.72;5058279;28;45302;-41
2023/10/02 05:47:04;;;;;;;;;22.67;17.67;;;;;18.31;71.08;101604.97;5058031;28;46146;-42
2023/10/02 05:49:30;;;;;;;;;34.33;23.67;;;;;18.30;70.66;101597.09;5057987;28;45245;-40
2023/10/02 05:51:55;;;;;;;;;22.67;17.00;;;;;18.26;70.84;101591.19;5058164;28;45230;-41
2023/10/02 05:54:29;;;;;;;;;21.00;19.00;;;;;18.29;70.91;101595.41;5058474;28;45495;-42
2023/10/02 05:57:12;;;;;;;;;26.33;20.00;;;;;18.23;70.83;101594.25;5057916;28;46427;-43
2023/10/02 06:02:33;;;;;;;;;26.33;19.67;;;;;18.30;70.83;101591.69;4956892;28;45427;-43
2023/10/02 06:05:11;;;;;;;;;20.33;18.33;;;;;18.31;70.48;101585.28;4957029;28;45433;-43
2023/10/02 06:07:51;;;;;;;;;22.33;20.67;;;;;18.32;70.51;101578.88;4956795;28;45381;-42
2023/10/02 06:10:26;;;;;;;;;23.00;16.33;;;;;18.29;70.48;101588.16;4956785;28;45370;-43
2023/10/02 06:13:02;;;;;;;;;32.00;19.67;;;;;18.28;70.38;101582.94;4956597;28;45370;-42
2023/10/02 06:15:46;;;;;;;;;25.33;18.00;;;;;18.24;70.50;101577.06;4956683;28;45251;-42
2023/10/02 06:18:24;;;;;;;;;27.33;20.00;;;;;18.28;70.32;101585.63;4956255;28;47123;-42
2023/10/02 06:21:00;;;;;;;;;23.00;19.00;;;;;18.28;70.52;101599.09;4956426;28;45542;-44
2023/10/02 06:23:37;;;;;;;;;24.33;17.67;;;;;18.29;70.00;101592.72;4955844;28;45563;-43
2023/10/02 06:26:11;;;;;;;;;23.00;19.00;;;;;18.28;70.18;101593.72;4956618;28;45472;-41
2023/10/02 06:28:37;;;;;;;;;26.67;19.00;;;;;18.31;70.51;101602.28;4955705;28;45370;-42
2023/10/02 06:31:06;;;;;;;;;24.00;19.33;;;;;18.35;70.33;101603.59;4939804;28;45497;-42
2023/10/02 06:33:36;;;;;;;;;29.33;18.33;;;;;18.38;70.12;101605.13;4956450;28;45456;-41
2023/10/02 06:36:05;;;;;;;;;28.00;22.67;;;;;18.39;70.11;101614.88;4956458;28;45378;-43
2023/10/02 06:38:30;;;;;;;;;26.67;22.00;;;;;18.41;70.26;101607.44;4986539;28;46368;-44
2023/10/02 06:40:56;;;;;;;;;25.00;17.67;;;;;18.42;70.16;101609.97;5057424;28;45366;-43
2023/10/02 06:43:32;;;;;;;;;25.67;20.33;;;;;18.30;70.23;101597.09;5057260;28;45336;-42
2023/10/02 06:46:13;;;;;;;;;33.33;24.67;;;;;18.48;69.86;101612.97;5057559;28;45437;-43
2023/10/02 06:48:42;;;;;;;;;25.00;19.67;;;;;18.46;70.06;101615.84;5056787;28;46206;-43
2023/10/02 06:51:07;;;;;;;;;23.67;18.00;;;;;18.48;70.12;101612.97;5057026;28;45434;-44
2023/10/02 06:53:33;;;;;;;;;29.00;20.67;;;;;18.50;70.15;101614.47;5057080;28;45280;-42
2023/10/02 06:56:06;;;;;;;;;28.33;18.00;;;;;18.55;69.78;101613.94;5057349;28;45270;-48
2023/10/02 06:58:46;;;;;;;;;28.00;23.67;;;;;18.60;69.65;101611.56;5056793;28;46294;-47
2023/10/02 07:01:12;;;;;;;;;28.00;20.00;;;;;18.57;69.47;101609.19;5056723;28;45333;-44
2023/10/02 07:03:39;;;;;;;;;29.33;20.33;;;;;18.59;69.47;101610.72;5057263;28;45311;-44
2023/10/02 07:06:07;;;;;;;;;28.33;18.67;;;;;18.62;69.57;101620.28;5039370;28;45345;-45
2023/10/02 07:08:34;;;;;;;;;31.67;21.67;;;;;18.70;69.37;101622.97;5056603;28;46496;-45
2023/10/02 07:11:09;;;;;;;;;23.67;20.33;;;;;18.75;69.39;101614.34;5056924;28;45438;-41
2023/10/02 07:13:35;;;;;;;;;32.00;25.00;;;;;18.78;68.96;101612.13;5056786;28;45365;-46
2023/10/02 07:16:00;;;;;;;;;26.00;22.00;;;;;18.89;68.59;101621.66;5056807;28;45418;-43
2023/10/02 07:18:46;;;;;;;;;22.33;16.67;;;;;18.93;68.44;101617.59;5056620;28;46110;-41
2023/10/02 07:21:13;;;;;;;;;27.00;19.00;;;;;18.95;68.00;101615.53;5056613;28;45405;-45
2023/10/02 07:23:38;;;;;;;;;26.33;19.67;;;;;19.00;68.05;101620.38;5056773;28;45494;-41
2023/10/02 07:26:14;;;;;;;;;28.67;21.33;;;;;19.04;67.77;101611.75;5056625;28;45411;-45
2023/10/02 07:28:50;;;;;;;;;27.00;24.00;;;;;19.09;67.53;101622.84;5056434;28;45377;-42
2023/10/02 07:31:17;;;;;;;;;31.00;21.00;;;;;19.15;67.48;101610.50;5056458;28;45458;-46
2023/10/02 07:33:44;;;;;;;;;29.33;19.00;;;;;19.22;67.09;101611.44;5039043;28;45431;-41
2023/10/02 07:36:16;;;;;;;;;34.00;25.33;;;;;19.32;67.00;101620.09;5060516;28;45611;-42
2023/10/02 07:38:42;;;;;;;;;24.67;20.33;;;;;19.39;66.38;101615.66;5059849;28;46387;-42
2023/10/02 07:41:23;;;;;;;;;25.67;20.33;;;;;19.48;66.23;101611.03;5059964;28;45386;-42
2023/10/02 07:43:55;;;;;;;;;26.33;21.67;;;;;19.54;65.86;101621.06;5059977;28;45407;-42
2023/10/02 07:46:23;;;;;;;;;27.25;18.50;;;;;19.55;65.80;101606.56;5060021;28;45498;-41
2023/10/02 07:49:00;;;;;;;;;26.67;18.33;;;;;19.56;65.80;101602.84;5059725;28;46437;-43
2023/10/02 07:51:35;;;;;;;;;34.33;20.67;;;;;19.66;65.84;101611.53;5059684;28;45394;-44
2023/10/02 07:54:01;;;;;;;;;34.00;20.67;;;;;19.69;65.37;101603.06;5059824;28;45407;-41
2023/10/02 07:56:29;;;;;;;;;29.75;21.50;;;;;19.77;65.58;101618.34;5060182;28;45410;-45
2023/10/02 07:59:01;;;;;;;;;30.33;22.67;;;;;19.71;64.89;101600.16;5059537;28;46035;-42
2023/10/02 08:01:29;;;;;;;;;28.00;19.25;;;;;19.89;64.68;101611.47;5059642;28;45406;-44
2023/10/02 08:03:58;;;;;;;;;25.00;22.00;;;;;19.90;64.36;101593.38;5059768;28;45307;-46
2023/10/02 08:06:33;;;;;;;;;31.67;24.00;;;;;20.09;64.06;101609.00;5059847;28;45299;-41
2023/10/02 08:11:56;;;;;;;;;23.50;20.25;;;;;20.87;61.55;101609.28;5059517;28;45554;-43
2023/10/02 08:14:38;;;;;;;;;21.50;19.75;;;;;21.76;58.86;101616.88;5059596;28;45359;-41
2023/10/02 08:19:59;;;;;;;;;28.00;20.00;;;;;23.13;55.12;101611.31;5059299;28;45324;-42
2023/10/02 08:22:35;;;;;;;;;29.00;20.25;;;;;22.97;55.21;101609.84;5059010;28;45393;-45
2023/10/02 08:25:13;;;;;;;;;19.75;17.25;;;;;22.94;55.30;101609.44;5059196;28;45362;-41
2023/10/02 08:27:46;;;;;;;;;22.75;17.25;;;;;23.13;55.00;101605.88;5059479;28;45276;-44
2023/10/02 08:30:28;;;;;;;;;29.25;22.00;;;;;23.46;54.37;101602.31;5059126;28;45983;-41
2023/10/02 08:33:09;;;;;;;;;37.75;23.00;;;;;23.70;53.79;101598.97;5059129;28;45418;-43
2023/10/02 08:35:39;;;;;;;;;26.00;20.25;;;;;24.10;52.58;101607.81;5040983;28;45475;-41
2023/10/02 08:38:07;;;;;;;;;19.50;13.50;;;;;24.33;50.98;101612.72;5059164;28;45418;-41
2023/10/02 08:40:33;;;;;;;;;27.25;21.25;;;;;24.47;50.59;101601.81;5037620;28;46461;-45
2023/10/02 08:42:58;;;;;;;;;27.60;21.00;;;;;24.92;50.29;101609.91;5056154;28;45489;-41
2023/10/02 08:45:24;;;;;;;;;22.75;19.50;;;;;25.27;48.85;101608.38;5055255;28;45446;-44
2023/10/02 08:47:49;;;;;;;;;27.00;20.00;;;;;25.69;47.79;101605.88;5056610;28;45460;-41
2023/10/02 08:50:16;;;;;;;;;23.75;19.25;;;;;25.98;47.91;101601.59;5056178;28;46179;-42
2023/10/02 08:52:50;;;;;;;;;28.40;21.40;;;;;26.32;47.04;101596.53;5057666;28;45418;-45
2023/10/02 08:55:40;;;;;;;;;31.80;20.60;;;;;26.61;47.13;101597.63;5054900;28;45461;-41
2023/10/02 09:06:41;;;;;;;;;29.60;18.40;;;;;27.83;44.10;101586.94;4977103;28;45479;-42
2023/10/02 09:09:16;;;;;;;;;25.20;17.00;;;;;28.00;43.70;101578.81;4976679;28;45282;-43
2023/10/02 09:11:44;;;;;;;;;28.80;22.40;;;;;28.39;43.02;101592.72;4976261;28;46182;-43
2023/10/02 09:17:19;;;;;;;;;27.40;19.40;;;;;28.96;42.02;101580.88;4937848;28;45446;-43
2023/10/02 09:20:00;;;;;;;;;25.80;19.60;;;;;29.07;41.45;101583.53;4938202;28;45478;-44
2023/10/02 09:22:27;;;;;;;;;24.00;19.60;;;;;29.31;40.44;101581.44;4937541;28;45654;-42
2023/10/02 09:25:09;;;;;;;;;27.20;22.20;;;;;29.63;41.24;101582.75;4937681;28;45429;-41
2023/10/02 09:27:41;;;;;;;;;25.00;19.60;;;;;29.86;40.07;101574.25;4921629;28;45372;-39
2023/10/02 09:30:28;;;;;;;;;26.40;22.40;;;;;29.99;39.38;101576.63;4937369;28;45480;-40
2023/10/02 09:32:53;;;;;;;;;26.20;20.80;;;;;30.02;39.06;101578.03;4937283;28;45501;-41
2023/10/02 09:35:29;;;;;;;;;22.25;21.50;;;;;30.01;39.16;101585.44;4937558;28;45372;-42
2023/10/02 09:37:56;;;;;;;;;28.80;20.60;;;;;29.92;39.19;101572.41;4991939;28;45488;-42
2023/10/02 09:43:21;;;;;;;;;29.60;21.20;;;;;30.27;39.01;101574.78;5015767;28;45898;-42
2023/10/02 09:45:48;;;;;;;;;27.20;22.80;;;;;30.34;38.65;101564.44;5015231;28;45435;-42
2023/10/02 09:51:10;;;;;;;;;23.40;21.00;;;;;30.63;38.13;101556.72;5015767;28;45376;-42
2023/10/02 09:54:04;;;;;;;;;26.80;21.20;;;;;30.72;38.79;101535.09;5028930;28;46199;-42
2023/10/02 09:57:05;;;;;;;;;27.20;21.20;;;;;31.27;37.46;101547.63;5057298;28;45186;-42
2023/10/02 09:59:48;;;;;;;;;26.60;20.80;;;;;31.45;36.45;101547.22;5057815;28;45317;-42
2023/10/02 10:10:49;;;;;;;;;30.20;22.80;;;;;32.01;36.37;101544.69;5057584;28;45327;-42
2023/10/02 10:13:37;;;;;;;;;29.20;22.00;;;;;32.06;35.69;101530.13;5057820;28;45392;-42
2023/10/02 10:16:20;;;;;;;;;30.80;19.80;;;;;32.20;35.68;101530.44;5057053;28;46993;-42
2023/10/02 10:19:41;;;;;;;;;23.20;19.40;;;;;32.44;35.45;101525.25;5057555;28;45376;-41
2023/10/02 10:21:56;;;;;;;;;28.80;23.80;;;;;32.56;34.46;101522.25;5043298;28;45367;-42
2023/10/02 10:27:40;;;;;;;;;23.40;20.60;;;;;32.93;34.37;101521.97;5057423;28;45338;-41
2023/10/02 10:30:24;;;;;;;;;23.20;17.20;;;;;32.95;34.39;101509.59;5056373;28;45229;-41
2023/10/02 10:33:15;;;;;;;;;25.40;23.40;;;;;33.00;33.69;101509.56;5057296;28;45504;-42
2023/10/02 10:35:49;;;;;;;;;26.40;24.20;;;;;32.95;34.04;101512.34;5057382;28;45256;-42
2023/10/02 10:38:34;;;;;;;;;35.00;22.80;;;;;32.86;34.26;101502.94;5055884;28;46245;-42
2023/10/02 10:41:00;;;;;;;;;33.00;25.00;;;;;33.08;33.65;101508.19;5057362;28;45274;-42
2023/10/02 10:43:55;;;;;;;;;24.20;22.00;;;;;33.25;32.45;101511.44;5057214;28;45319;-41
2023/10/02 10:46:28;;;;;;;;;27.80;23.40;;;;;33.55;33.04;101501.44;5057267;28;45551;-42
2023/10/02 10:49:23;;;;;;;;;26.00;21.80;;;;;33.96;33.48;101495.66;5057104;28;46103;-42
2023/10/02 10:51:52;;;;;;;;;29.00;23.00;;;;;34.70;31.78;101497.38;5057100;28;45224;-43
2023/10/02 10:54:30;;;;;;;;;28.40;23.60;;;;;35.03;31.03;101497.63;5057272;28;45439;-41
2023/10/02 10:56:58;;;;;;;;;24.20;22.20;;;;;35.32;30.68;101480.97;5057417;28;45492;-42
2023/10/02 10:59:32;;;;;;;;;28.00;23.00;;;;;35.71;30.64;101496.53;5056968;28;45367;-42
2023/10/02 11:02:12;;;;;;;;;22.60;17.60;;;;;36.27;29.06;101490.19;5056729;28;45299;-42
2023/10/02 11:04:50;;;;;;;;;29.60;20.20;;;;;38.35;27.71;101478.00;5057014;28;45374;-42
2023/10/02 11:07:21;;;;;;;;;29.00;19.20;;;;;40.34;24.92;101477.75;5057311;28;45396;-41
2023/10/02 11:10:20;;;;;;;;;21.60;16.80;;;;;42.00;23.39;101459.84;5058903;28;46013;-42
2023/10/02 11:13:08;;;;;;;;;25.60;20.80;;;;;42.17;22.52;101460.84;5060723;28;45360;-41
2023/10/02 11:15:47;;;;;;;;;28.40;18.60;;;;;42.19;22.09;101456.56;5060649;28;45183;-42
2023/10/02 11:18:20;;;;;;;;;28.80;23.20;;;;;41.49;22.56;101455.50;5060748;28;45425;-42
2023/10/02 11:20:54;;;;;;;;;24.40;20.60;;;;;40.57;23.47;101448.50;5060451;28;46239;-42
2023/10/02 11:23:40;;;;;;;;;22.40;18.60;;;;;40.98;23.64;101455.44;5060286;28;45272;-42
2023/10/02 11:26:13;;;;;;;;;34.60;22.80;;;;;40.59;23.09;101449.00;5060415;28;45265;-43
2023/10/02 11:28:41;;;;;;;;;28.40;21.20;;;;;39.67;24.21;101446.47;5059162;28;45400;-42
2023/10/02 11:31:29;;;;;;;;;21.80;20.40;;;;;39.10;24.90;101448.41;5042526;28;45229;-42
2023/10/02 11:34:02;;;;;;;;;24.40;19.80;;;;;39.92;24.43;101433.69;5058743;28;45348;-41
2023/10/02 11:36:35;;;;;;;;;23.80;19.00;;;;;41.86;22.77;101435.00;5042120;28;45505;-42
2023/10/02 11:39:08;;;;;;;;;24.20;17.00;;;;;42.39;20.98;101440.06;5060533;28;45495;-43
2023/10/02 11:41:34;;;;;;;;;31.00;24.00;;;;;42.50;21.79;101446.88;5059839;28;46658;-42
2023/10/02 11:44:00;;;;;;;;;24.00;21.40;;;;;43.28;20.90;101445.88;5060035;28;45368;-42
2023/10/02 11:46:25;;;;;;;;;24.00;21.75;;;;;43.64;20.61;101438.59;5060273;28;45304;-42
2023/10/02 11:48:51;;;;;;;;;26.25;23.25;;;;;43.67;20.33;101424.69;5060122;28;45296;-42
2023/10/02 11:51:17;;;;;;;;;21.50;19.50;;;;;43.68;20.20;101439.50;5058541;28;45424;-42
2023/10/02 11:53:42;;;;;;;;;23.50;19.00;;;;;43.68;20.45;101440.31;5060178;28;45324;-42
2023/10/02 11:56:08;;;;;;;;;27.00;21.25;;;;;44.40;20.34;101428.34;5059705;28;45318;-42
2023/10/02 11:58:33;;;;;;;;;22.25;17.50;;;;;45.23;18.76;101426.41;5060071;28;45356;-42
2023/10/02 12:01:03;;;;;;;;;21.50;19.25;;;;;45.40;19.47;101411.94;5059563;28;45740;-41
2023/10/02 12:03:28;;;;;;;;;24.00;21.20;;;;;45.68;18.62;101423.00;5058594;28;45458;-42
2023/10/02 12:05:54;;;;;;;;;21.25;15.50;;;;;45.60;19.14;101414.75;5060061;28;45658;-42
2023/10/02 12:08:21;;;;;;;;;20.75;18.50;;;;;46.58;17.76;101414.28;5059929;28;45490;-42
2023/10/02 12:10:46;;;;;;;;;23.60;19.60;;;;;47.29;16.92;101416.56;5059559;28;46287;-43
2023/10/02 12:13:12;;;;;;;;;32.00;20.50;;;;;47.58;16.94;101404.47;5059643;28;45434;-42
2023/10/02 12:15:38;;;;;;;;;27.25;20.50;;;;;47.43;17.04;101405.50;5059854;28;45413;-43
2023/10/02 12:18:04;;;;;;;;;26.25;19.75;;;;;47.65;16.56;101401.72;5059720;28;45409;-41
2023/10/02 12:20:30;;;;;;;;;28.20;22.40;;;;;47.83;17.02;101396.34;5059123;28;46117;-42
2023/10/02 12:22:56;;;;;;;;;19.80;16.80;;;;;48.23;16.42;101392.72;5059438;28;45264;-42
2023/10/02 12:25:21;;;;;;;;;27.75;22.50;;;;;47.88;16.48;101389.53;5059654;28;45343;-42
2023/10/02 12:27:49;;;;;;;;;28.75;22.75;;;;;47.89;16.70;101380.66;5059438;28;45514;-40
2023/10/02 12:30:15;;;;;;;;;27.40;22.40;;;;;47.41;17.46;101371.22;5059210;28;47113;-39
2023/10/02 12:32:42;;;;;;;;;23.25;18.50;;;;;44.67;19.05;101373.31;5058474;28;45308;-39
2023/10/02 12:35:07;;;;;;;;;30.40;26.20;;;;;42.23;21.43;101379.25;5059213;28;45270;-42
2023/10/02 12:37:33;;;;;;;;;22.50;19.00;;;;;40.12;23.16;101384.84;5059449;28;45541;-42